Croweburg, Kansas
Current Conditions -  °F | °C
As of 3:35 AM on Thursday 27 Nov 2014 (Local Time) from KPTS Reporting Station
Clear Clear  
Wind Chill: 26°   Ceiling: Unl
Heat Index: 31°   Visibility: 10mi
Dew Point: 26°   Wind: 5mph
Humidity: 80%   Direction: 350°N
Pressure: 30.45"   Gusts: NA
Location:  37.5542°N, 94.6826°W
Report Text: KPTS 270935Z AUTO 35004KT 10SM CLR M01/M04 A3045 RMK AO2 T10061036
Loading
Personal Weather Stations






























Interactive Weather Map New forecast layout! Learn more

10-Day Weather Forecast

Advertisements
Track Severe Weather on mobile